sensor_id;sensor_type;location;lat;lon;timestamp;pressure;altitude;pressure_sealevel;temperature;humidity
75886;BME280;64561;44.018;10.144;2023-04-05T00:00:26;101519.28;;;7.56;33.82
75886;BME280;64561;44.018;10.144;2023-04-05T00:02:56;101541.09;;;7.69;35.24
75886;BME280;64561;44.018;10.144;2023-04-05T00:05:23;101520.72;;;7.87;33.60
75886;BME280;64561;44.018;10.144;2023-04-05T00:07:56;101522.59;;;8.47;29.19
75886;BME280;64561;44.018;10.144;2023-04-05T00:10:24;101526.25;;;8.53;31.41
75886;BME280;64561;44.018;10.144;2023-04-05T00:12:51;101534.16;;;8.59;34.23
75886;BME280;64561;44.018;10.144;2023-04-05T00:15:18;101526.97;;;8.50;32.41
75886;BME280;64561;44.018;10.144;2023-04-05T00:17:45;101526.03;;;8.48;32.34
75886;BME280;64561;44.018;10.144;2023-04-05T00:20:12;101525.03;;;8.44;33.37
75886;BME280;64561;44.018;10.144;2023-04-05T00:22:40;101526.84;;;8.47;34.06
75886;BME280;64561;44.018;10.144;2023-04-05T00:25:10;101534.22;;;8.41;34.91
75886;BME280;64561;44.018;10.144;2023-04-05T00:27:38;101530.00;;;8.41;37.58
75886;BME280;64561;44.018;10.144;2023-04-05T00:30:05;101532.63;;;8.43;39.61
75886;BME280;64561;44.018;10.144;2023-04-05T00:32:32;101519.56;;;8.37;40.28
75886;BME280;64561;44.018;10.144;2023-04-05T00:34:59;101524.03;;;8.41;37.90
75886;BME280;64561;44.018;10.144;2023-04-05T00:37:25;101524.03;;;8.41;38.49
75886;BME280;64561;44.018;10.144;2023-04-05T00:39:52;101522.13;;;8.37;40.53
75886;BME280;64561;44.018;10.144;2023-04-05T00:42:19;101518.63;;;8.35;41.57
75886;BME280;64561;44.018;10.144;2023-04-05T00:44:46;101517.63;;;8.31;37.03
75886;BME280;64561;44.018;10.144;2023-04-05T00:47:13;101517.38;;;8.44;37.00
75886;BME280;64561;44.018;10.144;2023-04-05T00:49:40;101515.50;;;8.40;37.41
75886;BME280;64561;44.018;10.144;2023-04-05T00:52:07;101522.44;;;8.43;37.33
75886;BME280;64561;44.018;10.144;2023-04-05T00:54:34;101527.38;;;8.40;37.95
75886;BME280;64561;44.018;10.144;2023-04-05T00:57:01;101522.13;;;8.37;38.75
75886;BME280;64561;44.018;10.144;2023-04-05T00:59:28;101516.41;;;8.23;39.42
75886;BME280;64561;44.018;10.144;2023-04-05T01:02:00;101527.06;;;8.14;37.64
75886;BME280;64561;44.018;10.144;2023-04-05T01:04:30;101523.09;;;8.01;40.37
75886;BME280;64561;44.018;10.144;2023-04-05T01:07:08;101528.78;;;7.96;40.72
75886;BME280;64561;44.018;10.144;2023-04-05T01:09:51;101518.38;;;7.91;41.09
75886;BME280;64561;44.018;10.144;2023-04-05T01:12:20;101526.91;;;7.92;41.55
75886;BME280;64561;44.018;10.144;2023-04-05T01:14:50;101531.34;;;7.60;42.57
75886;BME280;64561;44.018;10.144;2023-04-05T01:17:19;101533.19;;;7.63;41.65
75886;BME280;64561;44.018;10.144;2023-04-05T01:19:49;101537.41;;;7.62;42.55
75886;BME280;64561;44.018;10.144;2023-04-05T01:30:31;101523.34;;;7.17;41.46
75886;BME280;64561;44.018;10.144;2023-04-05T01:33:19;101528.78;;;7.24;42.83
75886;BME280;64561;44.018;10.144;2023-04-05T01:35:54;101535.53;;;7.06;43.19
75886;BME280;64561;44.018;10.144;2023-04-05T01:38:26;101540.91;;;6.61;42.51
75886;BME280;64561;44.018;10.144;2023-04-05T01:40:53;101533.34;;;6.79;42.70
75886;BME280;64561;44.018;10.144;2023-04-05T01:43:20;101529.81;;;6.94;44.80
75886;BME280;64561;44.018;10.144;2023-04-05T01:45:47;101530.72;;;7.12;45.14
75886;BME280;64561;44.018;10.144;2023-04-05T01:48:14;101521.09;;;7.23;42.64
75886;BME280;64561;44.018;10.144;2023-04-05T01:50:41;101534.41;;;6.50;42.48
75886;BME280;64561;44.018;10.144;2023-04-05T01:53:09;101533.19;;;6.76;41.09
75886;BME280;64561;44.018;10.144;2023-04-05T01:55:36;101534.72;;;6.89;40.92
75886;BME280;64561;44.018;10.144;2023-04-05T01:58:03;101531.78;;;6.49;41.69
75886;BME280;64561;44.018;10.144;2023-04-05T02:00:30;101536.53;;;6.75;43.49
75886;BME280;64561;44.018;10.144;2023-04-05T02:02:57;101539.72;;;6.71;43.04
75886;BME280;64561;44.018;10.144;2023-04-05T02:05:24;101541.78;;;6.78;42.88
75886;BME280;64561;44.018;10.144;2023-04-05T02:07:51;101533.34;;;6.47;44.67
75886;BME280;64561;44.018;10.144;2023-04-05T02:10:18;101531.84;;;6.67;45.15
75886;BME280;64561;44.018;10.144;2023-04-05T02:12:45;101532.88;;;6.70;44.77
75886;BME280;64561;44.018;10.144;2023-04-05T02:15:12;101528.91;;;6.75;44.03
75886;BME280;64561;44.018;10.144;2023-04-05T02:17:39;101535.25;;;6.83;46.23
75886;BME280;64561;44.018;10.144;2023-04-05T02:20:12;101523.94;;;6.95;42.54
75886;BME280;64561;44.018;10.144;2023-04-05T02:22:40;101527.59;;;7.00;42.77
75886;BME280;64561;44.018;10.144;2023-04-05T02:25:11;101519.63;;;7.10;42.79
75886;BME280;64561;44.018;10.144;2023-04-05T02:27:39;101523.94;;;7.29;41.98
75886;BME280;64561;44.018;10.144;2023-04-05T02:30:07;101513.09;;;7.33;42.14
75886;BME280;64561;44.018;10.144;2023-04-05T02:32:41;101526.50;;;7.47;41.39
75886;BME280;64561;44.018;10.144;2023-04-05T02:35:10;101520.31;;;7.60;39.92
75886;BME280;64561;44.018;10.144;2023-04-05T02:37:38;101524.44;;;7.75;38.43
75886;BME280;64561;44.018;10.144;2023-04-05T02:40:07;101517.44;;;7.89;38.15
75886;BME280;64561;44.018;10.144;2023-04-05T02:42:36;101515.34;;;8.00;37.80
75886;BME280;64561;44.018;10.144;2023-04-05T02:45:06;101508.13;;;8.09;36.55
75886;BME280;64561;44.018;10.144;2023-04-05T02:47:34;101505.38;;;8.24;35.25
75886;BME280;64561;44.018;10.144;2023-04-05T02:50:05;101507.59;;;8.36;35.71
75886;BME280;64561;44.018;10.144;2023-04-05T02:52:38;101509.53;;;8.40;36.74
75886;BME280;64561;44.018;10.144;2023-04-05T02:55:07;101510.16;;;8.36;36.84
75886;BME280;64561;44.018;10.144;2023-04-05T02:57:37;101512.38;;;8.28;37.79
75886;BME280;64561;44.018;10.144;2023-04-05T03:00:18;101509.75;;;8.27;35.98
75886;BME280;64561;44.018;10.144;2023-04-05T03:02:45;101506.81;;;8.17;36.36
75886;BME280;64561;44.018;10.144;2023-04-05T03:05:12;101507.88;;;8.22;37.14
75886;BME280;64561;44.018;10.144;2023-04-05T03:07:42;101515.22;;;8.34;35.75
75886;BME280;64561;44.018;10.144;2023-04-05T03:10:13;101508.81;;;8.42;36.27
75886;BME280;64561;44.018;10.144;2023-04-05T03:12:40;101505.75;;;8.32;35.51
75886;BME280;64561;44.018;10.144;2023-04-05T03:15:09;101513.53;;;8.35;36.35
75886;BME280;64561;44.018;10.144;2023-04-05T03:17:39;101512.09;;;8.40;36.93
75886;BME280;64561;44.018;10.144;2023-04-05T03:20:11;101513.78;;;8.39;35.84
75886;BME280;64561;44.018;10.144;2023-04-05T03:22:39;101508.75;;;8.23;35.84
75886;BME280;64561;44.018;10.144;2023-04-05T03:25:08;101506.28;;;8.24;37.88
75886;BME280;64561;44.018;10.144;2023-04-05T03:27:41;101504.75;;;8.28;37.83
75886;BME280;64561;44.018;10.144;2023-04-05T03:30:12;101499.56;;;8.27;39.00
75886;BME280;64561;44.018;10.144;2023-04-05T03:32:46;101502.31;;;8.31;37.88
75886;BME280;64561;44.018;10.144;2023-04-05T03:35:36;101493.03;;;8.33;37.25
75886;BME280;64561;44.018;10.144;2023-04-05T03:38:06;101497.50;;;8.37;37.13
75886;BME280;64561;44.018;10.144;2023-04-05T03:40:36;101499.41;;;8.41;36.79
75886;BME280;64561;44.018;10.144;2023-04-05T03:43:04;101497.72;;;8.42;36.67
75886;BME280;64561;44.018;10.144;2023-04-05T03:45:31;101501.06;;;8.41;37.60
75886;BME280;64561;44.018;10.144;2023-04-05T03:47:59;101500.91;;;8.38;37.82
75886;BME280;64561;44.018;10.144;2023-04-05T03:50:26;101497.66;;;8.40;37.65
75886;BME280;64561;44.018;10.144;2023-04-05T03:52:53;101499.19;;;8.37;38.00
75886;BME280;64561;44.018;10.144;2023-04-05T03:55:20;101504.19;;;8.35;38.42
75886;BME280;64561;44.018;10.144;2023-04-05T03:57:50;101497.81;;;8.25;35.58
75886;BME280;64561;44.018;10.144;2023-04-05T04:00:22;101499.44;;;8.23;34.12
75886;BME280;64561;44.018;10.144;2023-04-05T04:03:10;101498.78;;;8.28;32.50
75886;BME280;64561;44.018;10.144;2023-04-05T04:05:40;101497.41;;;8.36;33.71
75886;BME280;64561;44.018;10.144;2023-04-05T04:08:08;101496.38;;;8.31;35.31
75886;BME280;64561;44.018;10.144;2023-04-05T04:10:36;101505.59;;;8.29;36.72
75886;BME280;64561;44.018;10.144;2023-04-05T04:13:13;101492.72;;;8.25;38.66
75886;BME280;64561;44.018;10.144;2023-04-05T04:15:41;101497.97;;;8.29;38.23
75886;BME280;64561;44.018;10.144;2023-04-05T04:18:22;101497.22;;;8.31;38.18
75886;BME280;64561;44.018;10.144;2023-04-05T04:21:18;101484.06;;;8.22;40.05
75886;BME280;64561;44.018;10.144;2023-04-05T04:24:07;101482.13;;;8.16;41.00
75886;BME280;64561;44.018;10.144;2023-04-05T04:27:07;101488.81;;;8.14;39.80
75886;BME280;64561;44.018;10.144;2023-04-05T04:29:55;101490.22;;;7.88;40.37
75886;BME280;64561;44.018;10.144;2023-04-05T04:32:42;101486.88;;;7.71;41.10
75886;BME280;64561;44.018;10.144;2023-04-05T04:35:37;101494.69;;;7.21;41.24
75886;BME280;64561;44.018;10.144;2023-04-05T04:38:23;101496.09;;;7.32;41.77
75886;BME280;64561;44.018;10.144;2023-04-05T04:41:14;101494.91;;;7.25;42.69
75886;BME280;64561;44.018;10.144;2023-04-05T04:44:09;101488.50;;;7.33;42.83
75886;BME280;64561;44.018;10.144;2023-04-05T04:47:12;101491.56;;;7.26;41.76
75886;BME280;64561;44.018;10.144;2023-04-05T04:50:19;101491.03;;;7.33;42.52
75886;BME280;64561;44.018;10.144;2023-04-05T04:52:46;101492.16;;;7.39;42.09
75886;BME280;64561;44.018;10.144;2023-04-05T04:55:13;101485.63;;;7.44;41.03
75886;BME280;64561;44.018;10.144;2023-04-05T04:57:42;101494.34;;;7.13;40.50
75886;BME280;64561;44.018;10.144;2023-04-05T05:00:10;101498.16;;;7.05;40.24
75886;BME280;64561;44.018;10.144;2023-04-05T05:02:43;101494.38;;;7.15;41.90
75886;BME280;64561;44.018;10.144;2023-04-05T05:05:13;101492.94;;;7.20;42.36
75886;BME280;64561;44.018;10.144;2023-04-05T05:07:40;101490.69;;;7.26;41.75
75886;BME280;64561;44.018;10.144;2023-04-05T05:10:09;101485.28;;;7.02;39.94
75886;BME280;64561;44.018;10.144;2023-04-05T05:12:37;101485.28;;;7.02;39.47
75886;BME280;64561;44.018;10.144;2023-04-05T05:15:04;101489.09;;;7.10;42.10
75886;BME280;64561;44.018;10.144;2023-04-05T05:17:31;101483.88;;;6.91;41.04
75886;BME280;64561;44.018;10.144;2023-04-05T05:20:00;101486.59;;;6.94;43.57
75886;BME280;64561;44.018;10.144;2023-04-05T05:22:29;101489.63;;;6.86;39.98
75886;BME280;64561;44.018;10.144;2023-04-05T05:24:56;101489.78;;;6.90;39.43
75886;BME280;64561;44.018;10.144;2023-04-05T05:27:23;101491.78;;;6.79;40.05
75886;BME280;64561;44.018;10.144;2023-04-05T05:29:50;101494.00;;;6.89;41.13
75886;BME280;64561;44.018;10.144;2023-04-05T05:32:17;101495.03;;;6.93;41.76
75886;BME280;64561;44.018;10.144;2023-04-05T05:34:44;101491.97;;;7.00;42.47
75886;BME280;64561;44.018;10.144;2023-04-05T05:37:11;101492.94;;;7.02;39.06
75886;BME280;64561;44.018;10.144;2023-04-05T05:39:38;101496.13;;;7.16;39.47
75886;BME280;64561;44.018;10.144;2023-04-05T05:42:05;101503.34;;;7.24;39.88
75886;BME280;64561;44.018;10.144;2023-04-05T05:44:32;101498.91;;;7.20;39.39
75886;BME280;64561;44.018;10.144;2023-04-05T05:46:59;101506.31;;;7.16;41.40
75886;BME280;64561;44.018;10.144;2023-04-05T05:49:25;101506.69;;;7.23;45.48
75886;BME280;64561;44.018;10.144;2023-04-05T05:51:52;101515.50;;;7.30;47.08
75886;BME280;64561;44.018;10.144;2023-04-05T05:54:19;101504.28;;;7.26;45.11
75886;BME280;64561;44.018;10.144;2023-04-05T05:56:46;101508.72;;;7.30;45.93
75886;BME280;64561;44.018;10.144;2023-04-05T05:59:13;101513.66;;;7.27;47.11
75886;BME280;64561;44.018;10.144;2023-04-05T06:01:40;101516.34;;;7.30;48.02
75886;BME280;64561;44.018;10.144;2023-04-05T06:04:08;101509.59;;;7.31;49.72
75886;BME280;64561;44.018;10.144;2023-04-05T06:06:35;101505.97;;;7.26;47.98
75886;BME280;64561;44.018;10.144;2023-04-05T06:09:03;101512.22;;;7.15;47.05
75886;BME280;64561;44.018;10.144;2023-04-05T06:11:30;101519.03;;;7.16;47.29
75886;BME280;64561;44.018;10.144;2023-04-05T06:13:57;101521.00;;;7.21;48.76
75886;BME280;64561;44.018;10.144;2023-04-05T06:16:23;101522.78;;;7.22;47.91
75886;BME280;64561;44.018;10.144;2023-04-05T06:18:50;101525.75;;;7.31;46.78
75886;BME280;64561;44.018;10.144;2023-04-05T06:21:17;101526.34;;;7.44;47.09
75886;BME280;64561;44.018;10.144;2023-04-05T06:23:44;101525.25;;;7.56;47.83
75886;BME280;64561;44.018;10.144;2023-04-05T06:26:18;101531.63;;;7.66;47.89
75886;BME280;64561;44.018;10.144;2023-04-05T06:28:46;101526.78;;;7.71;45.35
75886;BME280;64561;44.018;10.144;2023-04-05T06:31:15;101527.69;;;7.73;44.85
75886;BME280;64561;44.018;10.144;2023-04-05T06:33:43;101531.94;;;7.72;44.52
75886;BME280;64561;44.018;10.144;2023-04-05T06:36:10;101535.78;;;7.82;45.93
75886;BME280;64561;44.018;10.144;2023-04-05T06:38:38;101535.56;;;7.95;46.73
75886;BME280;64561;44.018;10.144;2023-04-05T06:41:05;101527.66;;;8.09;44.29
75886;BME280;64561;44.018;10.144;2023-04-05T06:43:32;101528.00;;;8.16;42.00
75886;BME280;64561;44.018;10.144;2023-04-05T06:45:59;101530.84;;;8.22;41.56
75886;BME280;64561;44.018;10.144;2023-04-05T06:48:28;101524.28;;;8.28;43.79
75886;BME280;64561;44.018;10.144;2023-04-05T06:50:59;101523.72;;;8.35;43.63
75886;BME280;64561;44.018;10.144;2023-04-05T06:53:26;101527.94;;;8.52;42.96
75886;BME280;64561;44.018;10.144;2023-04-05T06:55:54;101523.34;;;8.64;41.81
75886;BME280;64561;44.018;10.144;2023-04-05T06:58:22;101526.97;;;8.69;41.30
75886;BME280;64561;44.018;10.144;2023-04-05T07:00:50;101526.97;;;8.69;42.08
75886;BME280;64561;44.018;10.144;2023-04-05T07:03:17;101531.56;;;8.78;42.79
75886;BME280;64561;44.018;10.144;2023-04-05T07:08:19;101534.03;;;8.96;40.98
75886;BME280;64561;44.018;10.144;2023-04-05T07:10:47;101532.75;;;9.06;41.02
75886;BME280;64561;44.018;10.144;2023-04-05T07:13:14;101525.16;;;9.07;41.41
75886;BME280;64561;44.018;10.144;2023-04-05T07:15:43;101535.44;;;9.09;41.32
75886;BME280;64561;44.018;10.144;2023-04-05T07:18:11;101538.59;;;9.03;41.70
75886;BME280;64561;44.018;10.144;2023-04-05T07:20:38;101537.28;;;8.92;41.39
75886;BME280;64561;44.018;10.144;2023-04-05T07:23:05;101542.38;;;8.92;41.39
75886;BME280;64561;44.018;10.144;2023-04-05T07:25:32;101545.31;;;9.01;41.35
75886;BME280;64561;44.018;10.144;2023-04-05T07:27:59;101544.00;;;9.11;42.25
75886;BME280;64561;44.018;10.144;2023-04-05T07:30:26;101538.28;;;9.16;42.63
75886;BME280;64561;44.018;10.144;2023-04-05T07:32:54;101547.19;;;9.26;42.53
75886;BME280;64561;44.018;10.144;2023-04-05T07:35:21;101544.84;;;9.31;42.63
75886;BME280;64561;44.018;10.144;2023-04-05T07:37:48;101543.28;;;9.34;42.81
75886;BME280;64561;44.018;10.144;2023-04-05T07:40:15;101550.94;;;9.34;43.72
75886;BME280;64561;44.018;10.144;2023-04-05T07:42:42;101562.16;;;9.38;42.95
75886;BME280;64561;44.018;10.144;2023-04-05T07:45:09;101563.00;;;9.38;43.42
75886;BME280;64561;44.018;10.144;2023-04-05T07:47:36;101563.91;;;9.39;44.28
75886;BME280;64561;44.018;10.144;2023-04-05T07:50:03;101561.34;;;9.39;43.88
75886;BME280;64561;44.018;10.144;2023-04-05T07:52:30;101561.16;;;9.34;43.14
75886;BME280;64561;44.018;10.144;2023-04-05T07:54:57;101568.53;;;9.27;43.38
75886;BME280;64561;44.018;10.144;2023-04-05T07:57:24;101566.13;;;9.31;42.62
75886;BME280;64561;44.018;10.144;2023-04-05T07:59:52;101575.59;;;9.34;43.05
75886;BME280;64561;44.018;10.144;2023-04-05T08:02:20;101579.47;;;9.45;43.51
75886;BME280;64561;44.018;10.144;2023-04-05T08:04:47;101567.00;;;9.53;41.36
75886;BME280;64561;44.018;10.144;2023-04-05T08:07:14;101566.34;;;9.57;43.40
75886;BME280;64561;44.018;10.144;2023-04-05T08:09:40;101571.34;;;9.76;43.12
75886;BME280;64561;44.018;10.144;2023-04-05T08:12:07;101583.66;;;9.87;42.41
75886;BME280;64561;44.018;10.144;2023-04-05T08:14:34;101576.50;;;9.99;42.38
75886;BME280;64561;44.018;10.144;2023-04-05T08:17:01;101573.63;;;10.14;42.64
75886;BME280;64561;44.018;10.144;2023-04-05T08:19:27;101575.13;;;10.29;42.15
75886;BME280;64561;44.018;10.144;2023-04-05T08:21:54;101567.94;;;10.21;40.33
75886;BME280;64561;44.018;10.144;2023-04-05T08:24:21;101575.41;;;10.16;41.76
75886;BME280;64561;44.018;10.144;2023-04-05T08:26:48;101578.44;;;10.27;42.56
75886;BME280;64561;44.018;10.144;2023-04-05T08:29:15;101578.09;;;10.19;41.12
75886;BME280;64561;44.018;10.144;2023-04-05T08:31:42;101578.97;;;10.20;40.38
75886;BME280;64561;44.018;10.144;2023-04-05T08:34:09;101576.34;;;10.18;42.86
75886;BME280;64561;44.018;10.144;2023-04-05T08:36:36;101579.94;;;10.44;42.85
75886;BME280;64561;44.018;10.144;2023-04-05T08:45:50;101587.28;;;10.83;41.42
75886;BME280;64561;44.018;10.144;2023-04-05T08:48:18;101583.28;;;10.67;42.05
75886;BME280;64561;44.018;10.144;2023-04-05T08:50:49;101580.03;;;10.71;40.85
75886;BME280;64561;44.018;10.144;2023-04-05T08:53:17;101574.16;;;10.74;42.00
75886;BME280;64561;44.018;10.144;2023-04-05T08:55:54;101579.44;;;10.79;40.47
75886;BME280;64561;44.018;10.144;2023-04-05T08:58:22;101583.84;;;10.83;39.98
75886;BME280;64561;44.018;10.144;2023-04-05T09:00:50;101584.25;;;10.95;42.47
75886;BME280;64561;44.018;10.144;2023-04-05T09:03:30;101586.16;;;11.01;42.13
75886;BME280;64561;44.018;10.144;2023-04-05T09:06:01;101591.66;;;11.11;41.39
75886;BME280;64561;44.018;10.144;2023-04-05T09:08:31;101587.81;;;10.98;40.95
75886;BME280;64561;44.018;10.144;2023-04-05T09:10:59;101593.03;;;11.02;40.16
75886;BME280;64561;44.018;10.144;2023-04-05T09:13:26;101595.84;;;11.09;40.99
75886;BME280;64561;44.018;10.144;2023-04-05T09:15:53;101591.00;;;11.17;40.37
75886;BME280;64561;44.018;10.144;2023-04-05T09:18:20;101591.03;;;11.18;41.28
75886;BME280;64561;44.018;10.144;2023-04-05T09:21:01;101592.19;;;11.27;40.31
75886;BME280;64561;44.018;10.144;2023-04-05T09:23:29;101591.91;;;11.19;41.47
75886;BME280;64561;44.018;10.144;2023-04-05T09:25:56;101586.78;;;11.19;42.63
75886;BME280;64561;44.018;10.144;2023-04-05T09:28:22;101586.09;;;11.23;41.69
75886;BME280;64561;44.018;10.144;2023-04-05T09:30:59;101576.97;;;11.31;41.22
75886;BME280;64561;44.018;10.144;2023-04-05T09:33:26;101579.53;;;11.31;41.97
75886;BME280;64561;44.018;10.144;2023-04-05T09:35:54;101579.03;;;11.43;39.15
75886;BME280;64561;44.018;10.144;2023-04-05T09:38:41;101578.16;;;11.42;39.65
75886;BME280;64561;44.018;10.144;2023-04-05T09:41:08;101576.00;;;11.55;38.17
75886;BME280;64561;44.018;10.144;2023-04-05T09:43:40;101579.66;;;11.61;38.46
75886;BME280;64561;44.018;10.144;2023-04-05T09:46:43;101580.22;;;11.53;37.41
75886;BME280;64561;44.018;10.144;2023-04-05T09:49:10;101576.06;;;11.56;41.47
75886;BME280;64561;44.018;10.144;2023-04-05T09:51:37;101572.72;;;11.59;39.83
75886;BME280;64561;44.018;10.144;2023-04-05T09:54:09;101575.78;;;11.74;41.71
75886;BME280;64561;44.018;10.144;2023-04-05T09:56:38;101574.56;;;11.88;38.37
75886;BME280;64561;44.018;10.144;2023-04-05T09:59:10;101570.56;;;11.71;38.30
75886;BME280;64561;44.018;10.144;2023-04-05T10:01:42;101570.94;;;11.56;38.40
75886;BME280;64561;44.018;10.144;2023-04-05T10:04:09;101563.91;;;11.51;39.47
75886;BME280;64561;44.018;10.144;2023-04-05T10:06:38;101567.34;;;11.51;39.22
75886;BME280;64561;44.018;10.144;2023-04-05T10:09:06;101572.72;;;11.59;39.70
75886;BME280;64561;44.018;10.144;2023-04-05T10:11:35;101567.72;;;11.63;40.42
75886;BME280;64561;44.018;10.144;2023-04-05T10:14:06;101563.75;;;11.73;40.85
75886;BME280;64561;44.018;10.144;2023-04-05T10:17:03;101560.03;;;11.89;40.62
75886;BME280;64561;44.018;10.144;2023-04-05T10:25:39;101561.78;;;12.20;39.74
75886;BME280;64561;44.018;10.144;2023-04-05T10:31:24;101558.56;;;12.27;40.22
75886;BME280;64561;44.018;10.144;2023-04-05T10:34:09;101551.84;;;12.31;37.02
75886;BME280;64561;44.018;10.144;2023-04-05T10:36:56;101561.13;;;12.27;37.51
75886;BME280;64561;44.018;10.144;2023-04-05T10:39:38;101544.41;;;12.10;38.25
75886;BME280;64561;44.018;10.144;2023-04-05T10:44:36;101535.78;;;12.38;39.54
75886;BME280;64561;44.018;10.144;2023-04-05T10:47:05;101544.53;;;12.45;40.48
75886;BME280;64561;44.018;10.144;2023-04-05T10:49:46;101535.25;;;12.50;40.36
75886;BME280;64561;44.018;10.144;2023-04-05T10:52:16;101544.78;;;12.54;38.35
75886;BME280;64561;44.018;10.144;2023-04-05T10:54:44;101537.25;;;12.60;37.66
75886;BME280;64561;44.018;10.144;2023-04-05T10:57:11;101535.25;;;12.50;36.04
75886;BME280;64561;44.018;10.144;2023-04-05T10:59:41;101541.34;;;12.53;37.15
75886;BME280;64561;44.018;10.144;2023-04-05T11:02:10;101529.38;;;12.54;38.65
75886;BME280;64561;44.018;10.144;2023-04-05T11:04:38;101528.72;;;12.61;37.84
75886;BME280;64561;44.018;10.144;2023-04-05T11:07:17;101527.28;;;12.71;36.19
75886;BME280;64561;44.018;10.144;2023-04-05T11:10:04;101524.94;;;12.80;38.41
75886;BME280;64561;44.018;10.144;2023-04-05T11:18:08;101520.09;;;12.91;36.15
75886;BME280;64561;44.018;10.144;2023-04-05T11:20:48;101528.84;;;12.99;34.68
75886;BME280;64561;44.018;10.144;2023-04-05T11:23:19;101521.50;;;12.79;35.49
75886;BME280;64561;44.018;10.144;2023-04-05T11:25:52;101520.50;;;12.74;35.93
75886;BME280;64561;44.018;10.144;2023-04-05T11:28:23;101522.44;;;12.83;35.99
75886;BME280;64561;44.018;10.144;2023-04-05T11:30:50;101518.00;;;12.76;37.66
75886;BME280;64561;44.018;10.144;2023-04-05T11:33:52;101528.44;;;12.84;38.10
75886;BME280;64561;44.018;10.144;2023-04-05T11:42:05;101515.41;;;13.09;38.26
75886;BME280;64561;44.018;10.144;2023-04-05T11:44:43;101516.78;;;13.30;38.28
75886;BME280;64561;44.018;10.144;2023-04-05T11:47:11;101517.03;;;13.40;37.14
75886;BME280;64561;44.018;10.144;2023-04-05T11:49:39;101513.47;;;13.34;34.37
75886;BME280;64561;44.018;10.144;2023-04-05T11:52:10;101511.53;;;13.25;37.71
75886;BME280;64561;44.018;10.144;2023-04-05T11:54:37;101510.56;;;13.21;39.15
75886;BME280;64561;44.018;10.144;2023-04-05T11:57:11;101518.56;;;13.32;36.75
75886;BME280;64561;44.018;10.144;2023-04-05T11:59:38;101510.91;;;13.35;37.96
75886;BME280;64561;44.018;10.144;2023-04-05T12:02:05;101502.63;;;13.47;37.04
75886;BME280;64561;44.018;10.144;2023-04-05T12:04:35;101503.41;;;13.43;39.09
75886;BME280;64561;44.018;10.144;2023-04-05T12:07:15;101506.31;;;13.58;37.98
75886;BME280;64561;44.018;10.144;2023-04-05T12:10:08;101506.50;;;13.67;38.16
75886;BME280;64561;44.018;10.144;2023-04-05T12:12:43;101500.56;;;13.70;37.79
75886;BME280;64561;44.018;10.144;2023-04-05T12:15:11;101502.28;;;13.69;35.36
75886;BME280;64561;44.018;10.144;2023-04-05T12:17:48;101495.31;;;13.65;35.64
75886;BME280;64561;44.018;10.144;2023-04-05T12:20:18;101488.25;;;13.55;37.15
75886;BME280;64561;44.018;10.144;2023-04-05T12:22:47;101499.59;;;13.63;36.72
75886;BME280;64561;44.018;10.144;2023-04-05T12:25:15;101493.72;;;13.69;38.75
75886;BME280;64561;44.018;10.144;2023-04-05T12:27:43;101495.38;;;13.68;35.76
75886;BME280;64561;44.018;10.144;2023-04-05T12:30:11;101499.00;;;13.75;36.53
75886;BME280;64561;44.018;10.144;2023-04-05T12:32:43;101487.81;;;13.75;35.33
75886;BME280;64561;44.018;10.144;2023-04-05T12:35:16;101500.53;;;13.68;36.35
75886;BME280;64561;44.018;10.144;2023-04-05T12:37:43;101490.34;;;13.73;35.86
75886;BME280;64561;44.018;10.144;2023-04-05T12:40:10;101502.22;;;13.66;35.36
75886;BME280;64561;44.018;10.144;2023-04-05T12:42:38;101507.28;;;13.63;35.59
75886;BME280;64561;44.018;10.144;2023-04-05T12:45:10;101498.59;;;13.58;34.64
75886;BME280;64561;44.018;10.144;2023-04-05T12:48:08;101499.59;;;13.63;35.93
75886;BME280;64561;44.018;10.144;2023-04-05T12:50:44;101499.53;;;13.62;34.82
75886;BME280;64561;44.018;10.144;2023-04-05T12:53:16;101498.63;;;13.60;36.47
75886;BME280;64561;44.018;10.144;2023-04-05T12:55:48;101507.50;;;13.72;36.43
75886;BME280;64561;44.018;10.144;2023-04-05T12:58:17;101507.38;;;13.68;36.08
75886;BME280;64561;44.018;10.144;2023-04-05T13:00:45;101503.84;;;13.63;36.41
75886;BME280;64561;44.018;10.144;2023-04-05T13:03:17;101503.88;;;13.64;36.49
75886;BME280;64561;44.018;10.144;2023-04-05T13:05:46;101496.22;;;13.67;36.86
75886;BME280;64561;44.018;10.144;2023-04-05T13:08:15;101504.00;;;13.70;37.20
75886;BME280;64561;44.018;10.144;2023-04-05T13:10:46;101498.47;;;13.54;36.97
75886;BME280;64561;44.018;10.144;2023-04-05T13:13:14;101496.88;;;13.57;35.49
75886;BME280;64561;44.018;10.144;2023-04-05T13:15:42;101500.66;;;13.75;38.49
75886;BME280;64561;44.018;10.144;2023-04-05T13:18:09;101503.31;;;13.78;36.17
75886;BME280;64561;44.018;10.144;2023-04-05T13:20:36;101493.78;;;13.72;36.21
75886;BME280;64561;44.018;10.144;2023-04-05T13:23:04;101493.53;;;13.61;37.46
75886;BME280;64561;44.018;10.144;2023-04-05T13:25:39;101482.50;;;13.67;38.64
75886;BME280;64561;44.018;10.144;2023-04-05T13:28:08;101493.84;;;13.75;36.15
75886;BME280;64561;44.018;10.144;2023-04-05T13:30:35;101492.16;;;13.77;38.11
75886;BME280;64561;44.018;10.144;2023-04-05T13:33:02;101490.38;;;13.75;37.91
75886;BME280;64561;44.018;10.144;2023-04-05T13:35:32;101493.06;;;13.79;36.31
75886;BME280;64561;44.018;10.144;2023-04-05T13:37:59;101491.28;;;13.75;36.01
75886;BME280;64561;44.018;10.144;2023-04-05T13:40:30;101489.16;;;13.57;37.06
75886;BME280;64561;44.018;10.144;2023-04-05T13:42:57;101489.97;;;13.55;36.78